sensor_id;sensor_type;location;lat;lon;timestamp;P1;durP1;ratioP1;P2;durP2;ratioP2
61709;SDS011;47633;51.494;5.386;2023-03-14T00:00:47;4.75;;;1.65;;
61709;SDS011;47633;51.494;5.386;2023-03-14T00:03:12;6.83;;;1.90;;
61709;SDS011;47633;51.494;5.386;2023-03-14T00:05:38;3.95;;;1.48;;
61709;SDS011;47633;51.494;5.386;2023-03-14T00:08:03;3.78;;;1.42;;
61709;SDS011;47633;51.494;5.386;2023-03-14T00:10:28;4.30;;;1.40;;
61709;SDS011;47633;51.494;5.386;2023-03-14T00:12:54;5.07;;;1.40;;
61709;SDS011;47633;51.494;5.386;2023-03-14T00:15:19;5.05;;;1.40;;
61709;SDS011;47633;51.494;5.386;2023-03-14T00:17:44;4.93;;;1.30;;
61709;SDS011;47633;51.494;5.386;2023-03-14T00:20:10;4.65;;;1.23;;
61709;SDS011;47633;51.494;5.386;2023-03-14T00:22:36;5.00;;;1.30;;
61709;SDS011;47633;51.494;5.386;2023-03-14T00:25:03;3.05;;;1.10;;
61709;SDS011;47633;51.494;5.386;2023-03-14T00:27:30;4.93;;;1.20;;
61709;SDS011;47633;51.494;5.386;2023-03-14T00:29:56;4.55;;;1.20;;
61709;SDS011;47633;51.494;5.386;2023-03-14T00:32:22;5.75;;;1.50;;
61709;SDS011;47633;51.494;5.386;2023-03-14T00:34:47;3.97;;;0.98;;
61709;SDS011;47633;51.494;5.386;2023-03-14T00:37:12;5.38;;;1.30;;
61709;SDS011;47633;51.494;5.386;2023-03-14T00:39:38;4.43;;;1.50;;
61709;SDS011;47633;51.494;5.386;2023-03-14T00:42:03;4.37;;;1.37;;
61709;SDS011;47633;51.494;5.386;2023-03-14T00:44:28;4.43;;;1.20;;
61709;SDS011;47633;51.494;5.386;2023-03-14T00:46:54;4.85;;;1.27;;
61709;SDS011;47633;51.494;5.386;2023-03-14T00:49:19;4.32;;;1.23;;
61709;SDS011;47633;51.494;5.386;2023-03-14T00:51:45;3.50;;;1.10;;
61709;SDS011;47633;51.494;5.386;2023-03-14T00:54:10;4.70;;;1.17;;
61709;SDS011;47633;51.494;5.386;2023-03-14T00:56:35;7.88;;;1.40;;
61709;SDS011;47633;51.494;5.386;2023-03-14T00:59:00;3.97;;;1.10;;
61709;SDS011;47633;51.494;5.386;2023-03-14T01:01:26;3.95;;;1.40;;
61709;SDS011;47633;51.494;5.386;2023-03-14T01:03:52;5.15;;;1.20;;
61709;SDS011;47633;51.494;5.386;2023-03-14T01:06:20;3.72;;;1.02;;
61709;SDS011;47633;51.494;5.386;2023-03-14T01:08:50;2.28;;;0.90;;
61709;SDS011;47633;51.494;5.386;2023-03-14T01:11:17;3.33;;;0.98;;
61709;SDS011;47633;51.494;5.386;2023-03-14T01:13:45;3.53;;;1.02;;
61709;SDS011;47633;51.494;5.386;2023-03-14T01:16:11;4.00;;;1.30;;
61709;SDS011;47633;51.494;5.386;2023-03-14T01:18:38;4.32;;;1.20;;
61709;SDS011;47633;51.494;5.386;2023-03-14T01:23:42;4.28;;;1.45;;
61709;SDS011;47633;51.494;5.386;2023-03-14T01:26:09;4.13;;;1.10;;
61709;SDS011;47633;51.494;5.386;2023-03-14T01:28:35;4.95;;;1.10;;
61709;SDS011;47633;51.494;5.386;2023-03-14T01:31:08;4.18;;;1.20;;
61709;SDS011;47633;51.494;5.386;2023-03-14T01:33:35;3.50;;;1.20;;
61709;SDS011;47633;51.494;5.386;2023-03-14T01:36:00;3.60;;;1.30;;
61709;SDS011;47633;51.494;5.386;2023-03-14T01:38:29;3.60;;;1.10;;
61709;SDS011;47633;51.494;5.386;2023-03-14T01:40:55;5.03;;;1.20;;
61709;SDS011;47633;51.494;5.386;2023-03-14T01:43:21;3.80;;;1.00;;
61709;SDS011;47633;51.494;5.386;2023-03-14T01:46:31;3.75;;;1.10;;
61709;SDS011;47633;51.494;5.386;2023-03-14T01:54:46;4.80;;;1.10;;
61709;SDS011;47633;51.494;5.386;2023-03-14T02:00:21;4.82;;;1.27;;
61709;SDS011;47633;51.494;5.386;2023-03-14T02:02:48;3.92;;;0.95;;
61709;SDS011;47633;51.494;5.386;2023-03-14T02:05:16;4.03;;;1.15;;
61709;SDS011;47633;51.494;5.386;2023-03-14T02:10:21;3.45;;;1.05;;
61709;SDS011;47633;51.494;5.386;2023-03-14T02:12:49;3.58;;;1.08;;
61709;SDS011;47633;51.494;5.386;2023-03-14T02:15:17;3.40;;;1.08;;
61709;SDS011;47633;51.494;5.386;2023-03-14T02:17:43;5.00;;;1.30;;
61709;SDS011;47633;51.494;5.386;2023-03-14T02:22:51;5.65;;;1.20;;
61709;SDS011;47633;51.494;5.386;2023-03-14T02:27:52;4.05;;;1.20;;
61709;SDS011;47633;51.494;5.386;2023-03-14T02:30:19;4.53;;;1.25;;
61709;SDS011;47633;51.494;5.386;2023-03-14T02:32:47;3.05;;;0.90;;
61709;SDS011;47633;51.494;5.386;2023-03-14T02:35:21;5.05;;;1.20;;
61709;SDS011;47633;51.494;5.386;2023-03-14T02:37:51;4.45;;;1.10;;
61709;SDS011;47633;51.494;5.386;2023-03-14T02:40:25;3.80;;;1.02;;
61709;SDS011;47633;51.494;5.386;2023-03-14T02:42:50;4.60;;;1.40;;
61709;SDS011;47633;51.494;5.386;2023-03-14T02:47:43;6.03;;;1.13;;
61709;SDS011;47633;51.494;5.386;2023-03-14T02:50:21;3.25;;;1.10;;
61709;SDS011;47633;51.494;5.386;2023-03-14T02:52:49;4.05;;;1.00;;
61709;SDS011;47633;51.494;5.386;2023-03-14T02:55:19;4.13;;;1.17;;
61709;SDS011;47633;51.494;5.386;2023-03-14T02:57:45;6.00;;;1.30;;
61709;SDS011;47633;51.494;5.386;2023-03-14T03:00:10;4.50;;;1.35;;
61709;SDS011;47633;51.494;5.386;2023-03-14T03:02:36;4.32;;;1.20;;
61709;SDS011;47633;51.494;5.386;2023-03-14T03:05:01;5.38;;;1.10;;
61709;SDS011;47633;51.494;5.386;2023-03-14T03:07:27;3.30;;;1.00;;
61709;SDS011;47633;51.494;5.386;2023-03-14T03:09:52;5.00;;;1.20;;
61709;SDS011;47633;51.494;5.386;2023-03-14T03:12:17;5.20;;;1.20;;
61709;SDS011;47633;51.494;5.386;2023-03-14T03:14:45;4.10;;;1.20;;
61709;SDS011;47633;51.494;5.386;2023-03-14T03:17:10;3.97;;;1.23;;
61709;SDS011;47633;51.494;5.386;2023-03-14T03:19:35;4.32;;;1.42;;
61709;SDS011;47633;51.494;5.386;2023-03-14T03:22:01;3.67;;;1.07;;
61709;SDS011;47633;51.494;5.386;2023-03-14T03:24:26;4.68;;;1.33;;
61709;SDS011;47633;51.494;5.386;2023-03-14T03:26:52;4.55;;;1.38;;
61709;SDS011;47633;51.494;5.386;2023-03-14T03:29:17;5.38;;;1.35;;
61709;SDS011;47633;51.494;5.386;2023-03-14T03:31:42;3.22;;;1.02;;
61709;SDS011;47633;51.494;5.386;2023-03-14T03:34:10;5.13;;;1.10;;
61709;SDS011;47633;51.494;5.386;2023-03-14T03:36:36;3.25;;;1.02;;
61709;SDS011;47633;51.494;5.386;2023-03-14T03:39:01;4.85;;;1.20;;
61709;SDS011;47633;51.494;5.386;2023-03-14T03:41:27;4.65;;;1.10;;
61709;SDS011;47633;51.494;5.386;2023-03-14T03:43:52;5.15;;;1.30;;
61709;SDS011;47633;51.494;5.386;2023-03-14T03:46:19;2.22;;;0.73;;
61709;SDS011;47633;51.494;5.386;2023-03-14T03:48:44;3.42;;;0.90;;
61709;SDS011;47633;51.494;5.386;2023-03-14T03:51:13;5.50;;;1.00;;
61709;SDS011;47633;51.494;5.386;2023-03-14T03:53:40;4.45;;;1.08;;
61709;SDS011;47633;51.494;5.386;2023-03-14T03:56:06;3.30;;;1.10;;
61709;SDS011;47633;51.494;5.386;2023-03-14T03:58:31;3.03;;;0.85;;
61709;SDS011;47633;51.494;5.386;2023-03-14T04:00:56;4.30;;;1.10;;
61709;SDS011;47633;51.494;5.386;2023-03-14T04:03:22;3.95;;;1.10;;
61709;SDS011;47633;51.494;5.386;2023-03-14T04:05:57;3.28;;;0.93;;
61709;SDS011;47633;51.494;5.386;2023-03-14T04:08:23;2.95;;;0.88;;
61709;SDS011;47633;51.494;5.386;2023-03-14T04:10:49;3.35;;;1.02;;
61709;SDS011;47633;51.494;5.386;2023-03-14T04:13:14;3.30;;;1.03;;
61709;SDS011;47633;51.494;5.386;2023-03-14T04:15:39;2.90;;;0.90;;
61709;SDS011;47633;51.494;5.386;2023-03-14T04:18:04;3.30;;;0.82;;
61709;SDS011;47633;51.494;5.386;2023-03-14T04:20:30;3.75;;;0.90;;
61709;SDS011;47633;51.494;5.386;2023-03-14T04:22:55;2.85;;;0.80;;
61709;SDS011;47633;51.494;5.386;2023-03-14T04:25:20;5.95;;;1.20;;
61709;SDS011;47633;51.494;5.386;2023-03-14T04:27:46;3.40;;;0.90;;
61709;SDS011;47633;51.494;5.386;2023-03-14T04:30:12;3.58;;;0.90;;
61709;SDS011;47633;51.494;5.386;2023-03-14T04:32:38;3.60;;;0.90;;
61709;SDS011;47633;51.494;5.386;2023-03-14T04:35:04;4.05;;;0.98;;
61709;SDS011;47633;51.494;5.386;2023-03-14T04:37:30;4.30;;;0.90;;
61709;SDS011;47633;51.494;5.386;2023-03-14T04:39:55;3.50;;;0.93;;
61709;SDS011;47633;51.494;5.386;2023-03-14T04:42:21;3.33;;;0.90;;
61709;SDS011;47633;51.494;5.386;2023-03-14T04:44:46;3.13;;;0.90;;
61709;SDS011;47633;51.494;5.386;2023-03-14T04:47:14;3.25;;;1.00;;
61709;SDS011;47633;51.494;5.386;2023-03-14T04:49:39;3.83;;;0.90;;
61709;SDS011;47633;51.494;5.386;2023-03-14T04:52:04;4.15;;;1.25;;
61709;SDS011;47633;51.494;5.386;2023-03-14T04:54:30;2.47;;;0.80;;
61709;SDS011;47633;51.494;5.386;2023-03-14T04:56:55;2.47;;;0.95;;
61709;SDS011;47633;51.494;5.386;2023-03-14T04:59:21;3.85;;;0.95;;
61709;SDS011;47633;51.494;5.386;2023-03-14T05:01:46;2.47;;;0.80;;
61709;SDS011;47633;51.494;5.386;2023-03-14T05:04:13;3.38;;;1.10;;
61709;SDS011;47633;51.494;5.386;2023-03-14T05:06:38;3.03;;;0.95;;
61709;SDS011;47633;51.494;5.386;2023-03-14T05:09:04;2.65;;;0.82;;
61709;SDS011;47633;51.494;5.386;2023-03-14T05:11:30;3.13;;;1.05;;
61709;SDS011;47633;51.494;5.386;2023-03-14T05:13:55;2.53;;;0.80;;
61709;SDS011;47633;51.494;5.386;2023-03-14T05:16:20;2.55;;;0.68;;
61709;SDS011;47633;51.494;5.386;2023-03-14T05:18:46;3.42;;;0.93;;
61709;SDS011;47633;51.494;5.386;2023-03-14T05:21:11;2.70;;;0.80;;
61709;SDS011;47633;51.494;5.386;2023-03-14T05:23:36;3.47;;;0.70;;
61709;SDS011;47633;51.494;5.386;2023-03-14T05:26:02;3.15;;;0.80;;
61709;SDS011;47633;51.494;5.386;2023-03-14T05:28:27;2.80;;;0.82;;
61709;SDS011;47633;51.494;5.386;2023-03-14T05:30:53;2.40;;;0.80;;
61709;SDS011;47633;51.494;5.386;2023-03-14T05:33:18;2.83;;;0.70;;
61709;SDS011;47633;51.494;5.386;2023-03-14T05:35:44;2.75;;;0.77;;
61709;SDS011;47633;51.494;5.386;2023-03-14T05:38:09;2.03;;;0.63;;
61709;SDS011;47633;51.494;5.386;2023-03-14T05:40:34;3.65;;;0.82;;
61709;SDS011;47633;51.494;5.386;2023-03-14T05:43:00;2.22;;;0.70;;
61709;SDS011;47633;51.494;5.386;2023-03-14T05:45:25;2.80;;;0.65;;
61709;SDS011;47633;51.494;5.386;2023-03-14T05:47:50;2.50;;;0.70;;
61709;SDS011;47633;51.494;5.386;2023-03-14T05:50:16;3.28;;;0.70;;
61709;SDS011;47633;51.494;5.386;2023-03-14T05:52:41;2.78;;;0.88;;
61709;SDS011;47633;51.494;5.386;2023-03-14T05:55:06;2.25;;;0.70;;
61709;SDS011;47633;51.494;5.386;2023-03-14T05:57:32;2.85;;;0.80;;
61709;SDS011;47633;51.494;5.386;2023-03-14T05:59:57;2.22;;;0.80;;
61709;SDS011;47633;51.494;5.386;2023-03-14T06:02:22;2.35;;;0.70;;
61709;SDS011;47633;51.494;5.386;2023-03-14T06:04:48;2.08;;;0.70;;
61709;SDS011;47633;51.494;5.386;2023-03-14T06:07:13;2.55;;;0.70;;
61709;SDS011;47633;51.494;5.386;2023-03-14T06:09:38;1.88;;;0.80;;
61709;SDS011;47633;51.494;5.386;2023-03-14T06:12:04;2.10;;;0.70;;
61709;SDS011;47633;51.494;5.386;2023-03-14T06:14:32;2.22;;;0.70;;
61709;SDS011;47633;51.494;5.386;2023-03-14T06:16:57;3.25;;;0.70;;
61709;SDS011;47633;51.494;5.386;2023-03-14T06:19:24;2.58;;;0.82;;
61709;SDS011;47633;51.494;5.386;2023-03-14T06:21:50;2.08;;;0.57;;
61709;SDS011;47633;51.494;5.386;2023-03-14T06:24:15;2.50;;;0.80;;
61709;SDS011;47633;51.494;5.386;2023-03-14T06:26:40;2.28;;;0.80;;
61709;SDS011;47633;51.494;5.386;2023-03-14T06:29:05;2.97;;;0.70;;
61709;SDS011;47633;51.494;5.386;2023-03-14T06:31:31;2.42;;;0.60;;
61709;SDS011;47633;51.494;5.386;2023-03-14T06:33:57;1.95;;;0.60;;
61709;SDS011;47633;51.494;5.386;2023-03-14T06:36:23;2.47;;;0.60;;
61709;SDS011;47633;51.494;5.386;2023-03-14T06:38:48;3.92;;;0.77;;
61709;SDS011;47633;51.494;5.386;2023-03-14T06:41:14;3.28;;;0.77;;
61709;SDS011;47633;51.494;5.386;2023-03-14T06:43:39;2.38;;;0.70;;
61709;SDS011;47633;51.494;5.386;2023-03-14T06:46:04;2.95;;;0.60;;
61709;SDS011;47633;51.494;5.386;2023-03-14T06:48:30;1.63;;;0.68;;
61709;SDS011;47633;51.494;5.386;2023-03-14T06:50:55;2.38;;;0.70;;
61709;SDS011;47633;51.494;5.386;2023-03-14T06:53:20;3.45;;;0.60;;
61709;SDS011;47633;51.494;5.386;2023-03-14T06:55:46;2.80;;;0.90;;
61709;SDS011;47633;51.494;5.386;2023-03-14T06:58:11;2.45;;;0.70;;
61709;SDS011;47633;51.494;5.386;2023-03-14T07:00:36;2.53;;;0.80;;
61709;SDS011;47633;51.494;5.386;2023-03-14T07:03:02;1.58;;;0.65;;
61709;SDS011;47633;51.494;5.386;2023-03-14T07:05:27;1.65;;;0.60;;
61709;SDS011;47633;51.494;5.386;2023-03-14T07:07:53;2.92;;;0.73;;
61709;SDS011;47633;51.494;5.386;2023-03-14T07:10:18;1.45;;;0.55;;
61709;SDS011;47633;51.494;5.386;2023-03-14T07:12:43;1.92;;;0.65;;
61709;SDS011;47633;51.494;5.386;2023-03-14T07:15:09;2.03;;;0.60;;
61709;SDS011;47633;51.494;5.386;2023-03-14T07:17:34;3.10;;;0.70;;
61709;SDS011;47633;51.494;5.386;2023-03-14T07:20:00;4.93;;;1.00;;
61709;SDS011;47633;51.494;5.386;2023-03-14T07:22:26;2.53;;;1.02;;
61709;SDS011;47633;51.494;5.386;2023-03-14T07:24:51;1.98;;;0.80;;
61709;SDS011;47633;51.494;5.386;2023-03-14T07:27:16;3.22;;;0.60;;
61709;SDS011;47633;51.494;5.386;2023-03-14T07:29:42;2.75;;;0.70;;
61709;SDS011;47633;51.494;5.386;2023-03-14T07:32:07;1.58;;;0.60;;
61709;SDS011;47633;51.494;5.386;2023-03-14T07:34:33;2.42;;;0.85;;
61709;SDS011;47633;51.494;5.386;2023-03-14T07:36:58;1.65;;;0.63;;
61709;SDS011;47633;51.494;5.386;2023-03-14T07:39:23;2.38;;;0.70;;
61709;SDS011;47633;51.494;5.386;2023-03-14T07:41:49;1.98;;;0.70;;
61709;SDS011;47633;51.494;5.386;2023-03-14T07:44:14;3.57;;;1.23;;
61709;SDS011;47633;51.494;5.386;2023-03-14T07:46:39;3.23;;;0.70;;
61709;SDS011;47633;51.494;5.386;2023-03-14T07:49:04;2.50;;;0.80;;
61709;SDS011;47633;51.494;5.386;2023-03-14T07:51:30;1.48;;;0.70;;
61709;SDS011;47633;51.494;5.386;2023-03-14T07:53:55;3.08;;;0.70;;
61709;SDS011;47633;51.494;5.386;2023-03-14T07:56:20;3.60;;;0.70;;
61709;SDS011;47633;51.494;5.386;2023-03-14T07:58:46;2.57;;;0.60;;
61709;SDS011;47633;51.494;5.386;2023-03-14T08:01:11;1.85;;;0.80;;
61709;SDS011;47633;51.494;5.386;2023-03-14T08:03:36;2.75;;;0.60;;
61709;SDS011;47633;51.494;5.386;2023-03-14T08:06:02;2.60;;;0.70;;
61709;SDS011;47633;51.494;5.386;2023-03-14T08:08:27;2.45;;;0.70;;
61709;SDS011;47633;51.494;5.386;2023-03-14T08:10:52;2.60;;;0.80;;
61709;SDS011;47633;51.494;5.386;2023-03-14T08:13:17;2.33;;;0.60;;
61709;SDS011;47633;51.494;5.386;2023-03-14T08:15:46;3.03;;;0.88;;
61709;SDS011;47633;51.494;5.386;2023-03-14T08:18:13;3.25;;;0.70;;
61709;SDS011;47633;51.494;5.386;2023-03-14T08:20:38;3.83;;;0.70;;
61709;SDS011;47633;51.494;5.386;2023-03-14T08:23:03;1.65;;;0.60;;
61709;SDS011;47633;51.494;5.386;2023-03-14T08:25:29;2.03;;;0.65;;
61709;SDS011;47633;51.494;5.386;2023-03-14T08:27:54;2.67;;;0.60;;
61709;SDS011;47633;51.494;5.386;2023-03-14T08:30:20;2.35;;;0.93;;
61709;SDS011;47633;51.494;5.386;2023-03-14T08:32:46;4.50;;;0.70;;
61709;SDS011;47633;51.494;5.386;2023-03-14T08:35:12;1.52;;;0.50;;
61709;SDS011;47633;51.494;5.386;2023-03-14T08:37:38;1.77;;;0.60;;
61709;SDS011;47633;51.494;5.386;2023-03-14T08:40:04;1.77;;;0.60;;
61709;SDS011;47633;51.494;5.386;2023-03-14T08:42:34;2.10;;;0.63;;
61709;SDS011;47633;51.494;5.386;2023-03-14T08:45:03;5.25;;;0.82;;
61709;SDS011;47633;51.494;5.386;2023-03-14T08:47:29;2.78;;;0.70;;
61709;SDS011;47633;51.494;5.386;2023-03-14T08:49:54;1.88;;;0.50;;
61709;SDS011;47633;51.494;5.386;2023-03-14T08:52:19;1.80;;;0.50;;
61709;SDS011;47633;51.494;5.386;2023-03-14T08:54:45;1.08;;;0.52;;
61709;SDS011;47633;51.494;5.386;2023-03-14T08:57:10;2.95;;;0.50;;
61709;SDS011;47633;51.494;5.386;2023-03-14T08:59:36;0.85;;;0.50;;
61709;SDS011;47633;51.494;5.386;2023-03-14T09:02:01;4.18;;;1.60;;
61709;SDS011;47633;51.494;5.386;2023-03-14T09:04:28;1.15;;;0.52;;
61709;SDS011;47633;51.494;5.386;2023-03-14T09:06:54;1.88;;;0.50;;
61709;SDS011;47633;51.494;5.386;2023-03-14T09:09:19;2.15;;;0.60;;
61709;SDS011;47633;51.494;5.386;2023-03-14T09:11:44;1.80;;;0.50;;
61709;SDS011;47633;51.494;5.386;2023-03-14T09:14:10;3.23;;;0.80;;
61709;SDS011;47633;51.494;5.386;2023-03-14T09:16:35;2.17;;;0.70;;
61709;SDS011;47633;51.494;5.386;2023-03-14T09:19:00;1.42;;;0.50;;
61709;SDS011;47633;51.494;5.386;2023-03-14T09:21:26;1.40;;;0.60;;
61709;SDS011;47633;51.494;5.386;2023-03-14T09:23:52;1.92;;;0.63;;
61709;SDS011;47633;51.494;5.386;2023-03-14T09:26:18;3.08;;;0.70;;
61709;SDS011;47633;51.494;5.386;2023-03-14T09:28:43;3.63;;;0.70;;
61709;SDS011;47633;51.494;5.386;2023-03-14T09:31:09;2.10;;;0.60;;
61709;SDS011;47633;51.494;5.386;2023-03-14T09:33:36;1.13;;;0.50;;
61709;SDS011;47633;51.494;5.386;2023-03-14T09:36:02;1.52;;;0.50;;
61709;SDS011;47633;51.494;5.386;2023-03-14T09:38:28;1.77;;;0.50;;
61709;SDS011;47633;51.494;5.386;2023-03-14T09:40:54;1.33;;;0.50;;
61709;SDS011;47633;51.494;5.386;2023-03-14T09:43:22;2.15;;;0.55;;
61709;SDS011;47633;51.494;5.386;2023-03-14T09:45:50;2.08;;;0.50;;
61709;SDS011;47633;51.494;5.386;2023-03-14T09:48:19;2.03;;;0.50;;
61709;SDS011;47633;51.494;5.386;2023-03-14T09:50:50;2.53;;;0.60;;
61709;SDS011;47633;51.494;5.386;2023-03-14T09:53:19;1.15;;;0.50;;
61709;SDS011;47633;51.494;5.386;2023-03-14T09:55:49;1.33;;;0.50;;
61709;SDS011;47633;51.494;5.386;2023-03-14T09:58:18;2.17;;;0.65;;
61709;SDS011;47633;51.494;5.386;2023-03-14T10:00:45;1.35;;;0.45;;
61709;SDS011;47633;51.494;5.386;2023-03-14T10:05:37;1.10;;;0.40;;
61709;SDS011;47633;51.494;5.386;2023-03-14T10:08:04;1.10;;;0.40;;
61709;SDS011;47633;51.494;5.386;2023-03-14T10:10:29;1.95;;;0.50;;
61709;SDS011;47633;51.494;5.386;2023-03-14T10:12:59;0.93;;;0.50;;
61709;SDS011;47633;51.494;5.386;2023-03-14T10:15:38;2.00;;;0.45;;
61709;SDS011;47633;51.494;5.386;2023-03-14T10:18:04;1.55;;;0.50;;
61709;SDS011;47633;51.494;5.386;2023-03-14T10:20:41;2.50;;;0.50;;
61709;SDS011;47633;51.494;5.386;2023-03-14T10:25:37;2.58;;;0.60;;
61709;SDS011;47633;51.494;5.386;2023-03-14T10:28:04;2.55;;;0.60;;
61709;SDS011;47633;51.494;5.386;2023-03-14T10:30:37;1.52;;;0.50;;
61709;SDS011;47633;51.494;5.386;2023-03-14T10:33:11;2.67;;;0.68;;
61709;SDS011;47633;51.494;5.386;2023-03-14T10:35:45;1.48;;;0.50;;
61709;SDS011;47633;51.494;5.386;2023-03-14T10:38:15;1.48;;;0.45;;
61709;SDS011;47633;51.494;5.386;2023-03-14T10:40:49;1.75;;;0.75;;
61709;SDS011;47633;51.494;5.386;2023-03-14T10:43:19;1.40;;;0.40;;
61709;SDS011;47633;51.494;5.386;2023-03-14T10:45:52;1.38;;;0.50;;
61709;SDS011;47633;51.494;5.386;2023-03-14T10:50:53;2.97;;;0.68;;
61709;SDS011;47633;51.494;5.386;2023-03-14T10:53:21;1.27;;;0.50;;
61709;SDS011;47633;51.494;5.386;2023-03-14T10:55:47;2.55;;;0.70;;
61709;SDS011;47633;51.494;5.386;2023-03-14T10:58:21;2.38;;;0.68;;
61709;SDS011;47633;51.494;5.386;2023-03-14T11:00:54;3.42;;;0.70;;
61709;SDS011;47633;51.494;5.386;2023-03-14T11:03:38;2.90;;;0.70;;
61709;SDS011;47633;51.494;5.386;2023-03-14T11:06:25;3.83;;;0.60;;
61709;SDS011;47633;51.494;5.386;2023-03-14T11:09:01;3.63;;;0.80;;
61709;SDS011;47633;51.494;5.386;2023-03-14T11:11:35;3.00;;;0.52;;
61709;SDS011;47633;51.494;5.386;2023-03-14T11:14:08;3.20;;;0.60;;
61709;SDS011;47633;51.494;5.386;2023-03-14T11:16:47;2.80;;;0.60;;
61709;SDS011;47633;51.494;5.386;2023-03-14T11:22:08;2.90;;;0.70;;
61709;SDS011;47633;51.494;5.386;2023-03-14T11:33:16;3.50;;;0.93;;
61709;SDS011;47633;51.494;5.386;2023-03-14T11:38:50;3.83;;;0.80;;
61709;SDS011;47633;51.494;5.386;2023-03-14T11:41:33;5.07;;;0.68;;
61709;SDS011;47633;51.494;5.386;2023-03-14T11:44:04;3.43;;;0.87;;
61709;SDS011;47633;51.494;5.386;2023-03-14T11:46:42;3.53;;;0.73;;
61709;SDS011;47633;51.494;5.386;2023-03-14T11:49:19;4.30;;;0.80;;
61709;SDS011;47633;51.494;5.386;2023-03-14T11:52:02;5.13;;;1.25;;
61709;SDS011;47633;51.494;5.386;2023-03-14T11:54:35;4.20;;;0.70;;
61709;SDS011;47633;51.494;5.386;2023-03-14T11:57:11;3.78;;;1.00;;
61709;SDS011;47633;51.494;5.386;2023-03-14T12:10:42;5.65;;;0.82;;
61709;SDS011;47633;51.494;5.386;2023-03-14T12:13:11;5.57;;;0.90;;
61709;SDS011;47633;51.494;5.386;2023-03-14T12:15:40;5.07;;;0.80;;
61709;SDS011;47633;51.494;5.386;2023-03-14T12:18:18;3.88;;;1.05;;
61709;SDS011;47633;51.494;5.386;2023-03-14T12:21:19;3.47;;;0.98;;
61709;SDS011;47633;51.494;5.386;2023-03-14T12:23:41;5.97;;;1.10;;
61709;SDS011;47633;51.494;5.386;2023-03-14T12:26:13;5.32;;;1.10;;
61709;SDS011;47633;51.494;5.386;2023-03-14T12:28:48;3.83;;;1.05;;
61709;SDS011;47633;51.494;5.386;2023-03-14T12:34:26;4.45;;;1.00;;
61709;SDS011;47633;51.494;5.386;2023-03-14T12:42:08;5.90;;;1.33;;
61709;SDS011;47633;51.494;5.386;2023-03-14T12:44:40;7.88;;;1.48;;
61709;SDS011;47633;51.494;5.386;2023-03-14T12:50:00;6.18;;;1.02;;
61709;SDS011;47633;51.494;5.386;2023-03-14T12:52:57;4.75;;;0.93;;
61709;SDS011;47633;51.494;5.386;2023-03-14T12:55:39;7.18;;;0.95;;
61709;SDS011;47633;51.494;5.386;2023-03-14T12:58:32;4.88;;;1.10;;
61709;SDS011;47633;51.494;5.386;2023-03-14T13:01:15;6.10;;;1.33;;
61709;SDS011;47633;51.494;5.386;2023-03-14T13:03:46;8.80;;;1.20;;
61709;SDS011;47633;51.494;5.386;2023-03-14T13:06:12;5.05;;;1.40;;
61709;SDS011;47633;51.494;5.386;2023-03-14T13:08:39;4.18;;;1.00;;
61709;SDS011;47633;51.494;5.386;2023-03-14T13:11:14;4.95;;;1.10;;
61709;SDS011;47633;51.494;5.386;2023-03-14T13:13:45;4.93;;;1.00;;
61709;SDS011;47633;51.494;5.386;2023-03-14T13:16:15;5.38;;;1.02;;
61709;SDS011;47633;51.494;5.386;2023-03-14T13:18:44;7.25;;;1.27;;
61709;SDS011;47633;51.494;5.386;2023-03-14T13:21:18;3.75;;;1.00;;
61709;SDS011;47633;51.494;5.386;2023-03-14T13:24:45;7.13;;;1.13;;
61709;SDS011;47633;51.494;5.386;2023-03-14T13:26:47;9.85;;;1.58;;
61709;SDS011;47633;51.494;5.386;2023-03-14T13:29:24;5.40;;;1.33;;
61709;SDS011;47633;51.494;5.386;2023-03-14T13:31:54;5.03;;;0.77;;
61709;SDS011;47633;51.494;5.386;2023-03-14T13:34:30;4.22;;;1.10;;
61709;SDS011;47633;51.494;5.386;2023-03-14T13:36:57;4.68;;;1.35;;
61709;SDS011;47633;51.494;5.386;2023-03-14T13:39:24;5.10;;;1.20;;
61709;SDS011;47633;51.494;5.386;2023-03-14T13:41:53;4.50;;;1.10;;
61709;SDS011;47633;51.494;5.386;2023-03-14T13:44:24;5.40;;;1.10;;
61709;SDS011;47633;51.494;5.386;2023-03-14T13:46:50;4.93;;;1.10;;
61709;SDS011;47633;51.494;5.386;2023-03-14T13:49:19;5.40;;;0.93;;
61709;SDS011;47633;51.494;5.386;2023-03-14T13:51:48;5.90;;;1.10;;
61709;SDS011;47633;51.494;5.386;2023-03-14T13:54:15;5.78;;;1.55;;
61709;SDS011;47633;51.494;5.386;2023-03-14T13:56:45;5.85;;;1.20;;
61709;SDS011;47633;51.494;5.386;2023-03-14T13:59:23;4.72;;;1.00;;
61709;SDS011;47633;51.494;5.386;2023-03-14T14:01:50;6.00;;;1.30;;
61709;SDS011;47633;51.494;5.386;2023-03-14T14:04:18;7.38;;;1.20;;
61709;SDS011;47633;51.494;5.386;2023-03-14T14:06:59;7.30;;;1.38;;
61709;SDS011;47633;51.494;5.386;2023-03-14T14:17:50;5.20;;;1.10;;
61709;SDS011;47633;51.494;5.386;2023-03-14T14:20:20;8.02;;;1.52;;
61709;SDS011;47633;51.494;5.386;2023-03-14T14:22:49;9.60;;;1.25;;
61709;SDS011;47633;51.494;5.386;2023-03-14T14:25:15;4.50;;;1.23;;
61709;SDS011;47633;51.494;5.386;2023-03-14T14:27:42;9.75;;;1.17;;
61709;SDS011;47633;51.494;5.386;2023-03-14T14:32:42;4.78;;;1.10;;
61709;SDS011;47633;51.494;5.386;2023-03-14T14:35:10;8.02;;;1.33;;
61709;SDS011;47633;51.494;5.386;2023-03-14T14:37:46;7.22;;;1.25;;
61709;SDS011;47633;51.494;5.386;2023-03-14T14:40:19;5.55;;;1.23;;
61709;SDS011;47633;51.494;5.386;2023-03-14T14:42:46;7.15;;;1.30;;
61709;SDS011;47633;51.494;5.386;2023-03-14T14:45:13;4.13;;;1.02;;
61709;SDS011;47633;51.494;5.386;2023-03-14T14:50:21;5.50;;;1.23;;
61709;SDS011;47633;51.494;5.386;2023-03-14T14:52:56;8.32;;;1.30;;
61709;SDS011;47633;51.494;5.386;2023-03-14T14:55:28;6.25;;;1.35;;
61709;SDS011;47633;51.494;5.386;2023-03-14T14:57:56;5.35;;;1.17;;
61709;SDS011;47633;51.494;5.386;2023-03-14T15:00:23;3.85;;;1.10;;
61709;SDS011;47633;51.494;5.386;2023-03-14T15:02:51;4.43;;;1.20;;
61709;SDS011;47633;51.494;5.386;2023-03-14T15:05:19;5.00;;;1.00;;
61709;SDS011;47633;51.494;5.386;2023-03-14T15:07:46;6.40;;;1.20;;
61709;SDS011;47633;51.494;5.386;2023-03-14T15:10:13;4.47;;;1.13;;
61709;SDS011;47633;51.494;5.386;2023-03-14T15:12:40;8.23;;;1.50;;
61709;SDS011;47633;51.494;5.386;2023-03-14T15:15:06;6.22;;;0.85;;
61709;SDS011;47633;51.494;5.386;2023-03-14T15:17:32;7.32;;;1.35;;
61709;SDS011;47633;51.494;5.386;2023-03-14T15:19:57;4.78;;;1.10;;
61709;SDS011;47633;51.494;5.386;2023-03-14T15:22:23;6.85;;;1.10;;
61709;SDS011;47633;51.494;5.386;2023-03-14T15:24:49;5.97;;;1.27;;
61709;SDS011;47633;51.494;5.386;2023-03-14T15:27:15;5.10;;;1.15;;
61709;SDS011;47633;51.494;5.386;2023-03-14T15:29:41;5.88;;;1.13;;
61709;SDS011;47633;51.494;5.386;2023-03-14T15:32:14;4.38;;;1.38;;
61709;SDS011;47633;51.494;5.386;2023-03-14T15:34:41;5.97;;;1.33;;
61709;SDS011;47633;51.494;5.386;2023-03-14T15:37:11;6.22;;;1.17;;
61709;SDS011;47633;51.494;5.386;2023-03-14T15:39:37;7.30;;;1.17;;
61709;SDS011;47633;51.494;5.386;2023-03-14T15:42:03;4.72;;;1.10;;
61709;SDS011;47633;51.494;5.386;2023-03-14T15:44:28;7.07;;;1.13;;
61709;SDS011;47633;51.494;5.386;2023-03-14T15:46:54;3.58;;;1.10;;
61709;SDS011;47633;51.494;5.386;2023-03-14T15:49:19;4.97;;;0.85;;
61709;SDS011;47633;51.494;5.386;2023-03-14T15:51:44;5.47;;;1.13;;
61709;SDS011;47633;51.494;5.386;2023-03-14T15:54:09;7.43;;;1.27;;
61709;SDS011;47633;51.494;5.386;2023-03-14T15:56:35;5.55;;;1.08;;
61709;SDS011;47633;51.494;5.386;2023-03-14T15:59:00;4.57;;;1.20;;
61709;SDS011;47633;51.494;5.386;2023-03-14T16:01:25;6.55;;;1.00;;
61709;SDS011;47633;51.494;5.386;2023-03-14T16:03:51;6.40;;;1.13;;
61709;SDS011;47633;51.494;5.386;2023-03-14T16:06:17;4.57;;;1.17;;
61709;SDS011;47633;51.494;5.386;2023-03-14T16:08:43;6.70;;;1.17;;
61709;SDS011;47633;51.494;5.386;2023-03-14T16:11:11;5.13;;;1.17;;